sensor_id;sensor_type;location;lat;lon;timestamp;temperature;humidity
51982;DHT22;37998;53.416;6.730;2024-02-23T00:01:44;5.90;99.90
51982;DHT22;37998;53.416;6.730;2024-02-23T00:04:11;6.10;99.90
51982;DHT22;37998;53.416;6.730;2024-02-23T00:06:37;6.00;99.90
51982;DHT22;37998;53.416;6.730;2024-02-23T00:09:03;6.00;99.90
51982;DHT22;37998;53.416;6.730;2024-02-23T00:11:29;6.50;99.90
51982;DHT22;37998;53.416;6.730;2024-02-23T00:13:56;5.90;99.90
51982;DHT22;37998;53.416;6.730;2024-02-23T00:16:21;5.80;99.90
51982;DHT22;37998;53.416;6.730;2024-02-23T00:18:47;5.80;99.90
51982;DHT22;37998;53.416;6.730;2024-02-23T00:21:14;5.80;99.90
51982;DHT22;37998;53.416;6.730;2024-02-23T00:23:39;5.80;99.90
51982;DHT22;37998;53.416;6.730;2024-02-23T00:26:05;5.80;99.90
51982;DHT22;37998;53.416;6.730;2024-02-23T00:28:31;5.90;99.90
51982;DHT22;37998;53.416;6.730;2024-02-23T00:30:57;5.80;99.90
51982;DHT22;37998;53.416;6.730;2024-02-23T00:33:23;5.80;99.90
51982;DHT22;37998;53.416;6.730;2024-02-23T00:35:49;5.80;99.90
51982;DHT22;37998;53.416;6.730;2024-02-23T00:38:15;5.70;99.90
51982;DHT22;37998;53.416;6.730;2024-02-23T00:40:40;5.80;99.90
51982;DHT22;37998;53.416;6.730;2024-02-23T00:43:06;5.70;99.90
51982;DHT22;37998;53.416;6.730;2024-02-23T00:45:32;5.70;99.90
51982;DHT22;37998;53.416;6.730;2024-02-23T00:47:58;5.70;99.90
51982;DHT22;37998;53.416;6.730;2024-02-23T00:50:24;5.70;99.90
51982;DHT22;37998;53.416;6.730;2024-02-23T00:52:53;5.60;99.90
51982;DHT22;37998;53.416;6.730;2024-02-23T00:55:19;5.50;99.90
51982;DHT22;37998;53.416;6.730;2024-02-23T00:57:45;5.40;99.90
51982;DHT22;37998;53.416;6.730;2024-02-23T01:00:11;5.40;99.90
51982;DHT22;37998;53.416;6.730;2024-02-23T01:02:39;5.40;99.90
51982;DHT22;37998;53.416;6.730;2024-02-23T01:05:06;5.40;99.90
51982;DHT22;37998;53.416;6.730;2024-02-23T01:07:35;5.40;99.90
51982;DHT22;37998;53.416;6.730;2024-02-23T01:10:01;5.50;99.90
51982;DHT22;37998;53.416;6.730;2024-02-23T01:12:27;5.50;99.90
51982;DHT22;37998;53.416;6.730;2024-02-23T01:14:53;5.70;99.90
51982;DHT22;37998;53.416;6.730;2024-02-23T01:17:19;5.80;99.90
51982;DHT22;37998;53.416;6.730;2024-02-23T01:19:45;5.90;99.90
51982;DHT22;37998;53.416;6.730;2024-02-23T01:22:11;6.00;99.90
51982;DHT22;37998;53.416;6.730;2024-02-23T01:24:37;6.00;99.90
51982;DHT22;37998;53.416;6.730;2024-02-23T01:27:03;5.80;99.90
51982;DHT22;37998;53.416;6.730;2024-02-23T01:29:29;5.50;99.90
51982;DHT22;37998;53.416;6.730;2024-02-23T01:31:55;5.30;99.90
51982;DHT22;37998;53.416;6.730;2024-02-23T01:34:21;5.20;99.90
51982;DHT22;37998;53.416;6.730;2024-02-23T01:36:47;5.20;99.90
51982;DHT22;37998;53.416;6.730;2024-02-23T01:39:13;5.20;99.90
51982;DHT22;37998;53.416;6.730;2024-02-23T01:41:39;5.30;99.90
51982;DHT22;37998;53.416;6.730;2024-02-23T01:44:05;5.30;99.90
51982;DHT22;37998;53.416;6.730;2024-02-23T01:46:31;5.20;99.90
51982;DHT22;37998;53.416;6.730;2024-02-23T01:48:58;5.20;99.90
51982;DHT22;37998;53.416;6.730;2024-02-23T01:51:24;5.40;99.90
51982;DHT22;37998;53.416;6.730;2024-02-23T01:53:51;5.20;99.90
51982;DHT22;37998;53.416;6.730;2024-02-23T01:56:17;5.20;99.90
51982;DHT22;37998;53.416;6.730;2024-02-23T01:58:43;5.20;99.90
51982;DHT22;37998;53.416;6.730;2024-02-23T02:01:10;5.30;99.90
51982;DHT22;37998;53.416;6.730;2024-02-23T02:03:39;5.40;99.90
51982;DHT22;37998;53.416;6.730;2024-02-23T02:06:09;5.50;99.90
51982;DHT22;37998;53.416;6.730;2024-02-23T02:08:37;5.60;99.90
51982;DHT22;37998;53.416;6.730;2024-02-23T02:11:03;5.60;99.90
51982;DHT22;37998;53.416;6.730;2024-02-23T02:13:30;5.60;99.90
51982;DHT22;37998;53.416;6.730;2024-02-23T02:15:58;5.70;99.90
51982;DHT22;37998;53.416;6.730;2024-02-23T02:18:25;5.70;99.90
51982;DHT22;37998;53.416;6.730;2024-02-23T02:20:53;5.60;99.90
51982;DHT22;37998;53.416;6.730;2024-02-23T02:23:19;5.60;99.90
51982;DHT22;37998;53.416;6.730;2024-02-23T02:25:52;5.60;99.90
51982;DHT22;37998;53.416;6.730;2024-02-23T02:28:18;5.60;99.90
51982;DHT22;37998;53.416;6.730;2024-02-23T02:30:43;5.60;99.90
51982;DHT22;37998;53.416;6.730;2024-02-23T02:33:09;5.60;99.90
51982;DHT22;37998;53.416;6.730;2024-02-23T02:35:35;5.70;99.90
51982;DHT22;37998;53.416;6.730;2024-02-23T02:38:01;5.70;99.90
51982;DHT22;37998;53.416;6.730;2024-02-23T02:40:27;5.80;99.90
51982;DHT22;37998;53.416;6.730;2024-02-23T02:42:53;5.80;99.90
51982;DHT22;37998;53.416;6.730;2024-02-23T02:45:19;5.90;99.90
51982;DHT22;37998;53.416;6.730;2024-02-23T02:47:44;5.80;99.90
51982;DHT22;37998;53.416;6.730;2024-02-23T02:50:10;6.10;99.90
51982;DHT22;37998;53.416;6.730;2024-02-23T02:52:36;5.90;99.90
51982;DHT22;37998;53.416;6.730;2024-02-23T02:55:03;5.90;99.90
51982;DHT22;37998;53.416;6.730;2024-02-23T02:57:29;5.90;99.90
51982;DHT22;37998;53.416;6.730;2024-02-23T02:59:55;6.00;99.90
51982;DHT22;37998;53.416;6.730;2024-02-23T03:02:21;6.00;99.90
51982;DHT22;37998;53.416;6.730;2024-02-23T03:04:50;6.00;99.90
51982;DHT22;37998;53.416;6.730;2024-02-23T03:07:16;6.00;99.90
51982;DHT22;37998;53.416;6.730;2024-02-23T03:09:42;6.00;99.90
51982;DHT22;37998;53.416;6.730;2024-02-23T03:12:09;6.00;99.90
51982;DHT22;37998;53.416;6.730;2024-02-23T03:14:35;6.00;99.90
51982;DHT22;37998;53.416;6.730;2024-02-23T03:17:07;6.00;99.90
51982;DHT22;37998;53.416;6.730;2024-02-23T03:19:33;6.00;99.90
51982;DHT22;37998;53.416;6.730;2024-02-23T03:21:59;6.00;99.90
51982;DHT22;37998;53.416;6.730;2024-02-23T03:24:25;6.00;99.90
51982;DHT22;37998;53.416;6.730;2024-02-23T03:26:51;6.00;99.90
51982;DHT22;37998;53.416;6.730;2024-02-23T03:29:17;6.00;99.90
51982;DHT22;37998;53.416;6.730;2024-02-23T03:31:43;5.90;99.90
51982;DHT22;37998;53.416;6.730;2024-02-23T03:34:09;5.90;99.90
51982;DHT22;37998;53.416;6.730;2024-02-23T03:36:36;5.80;99.90
51982;DHT22;37998;53.416;6.730;2024-02-23T03:39:02;5.80;99.90
51982;DHT22;37998;53.416;6.730;2024-02-23T03:41:28;5.80;99.90
51982;DHT22;37998;53.416;6.730;2024-02-23T03:43:53;5.90;99.90
51982;DHT22;37998;53.416;6.730;2024-02-23T03:46:19;5.90;99.90
51982;DHT22;37998;53.416;6.730;2024-02-23T03:48:47;5.90;99.90
51982;DHT22;37998;53.416;6.730;2024-02-23T03:51:13;5.90;99.90
51982;DHT22;37998;53.416;6.730;2024-02-23T03:53:38;5.80;99.90
51982;DHT22;37998;53.416;6.730;2024-02-23T03:56:05;5.80;99.90
51982;DHT22;37998;53.416;6.730;2024-02-23T03:58:30;5.80;99.90
51982;DHT22;37998;53.416;6.730;2024-02-23T04:00:56;5.70;99.90
51982;DHT22;37998;53.416;6.730;2024-02-23T04:03:22;5.70;99.90
51982;DHT22;37998;53.416;6.730;2024-02-23T04:05:48;5.70;99.90
51982;DHT22;37998;53.416;6.730;2024-02-23T04:08:14;5.70;99.90
51982;DHT22;37998;53.416;6.730;2024-02-23T04:10:40;5.80;99.90
51982;DHT22;37998;53.416;6.730;2024-02-23T04:13:06;5.80;99.90
51982;DHT22;37998;53.416;6.730;2024-02-23T04:15:31;5.80;99.90
51982;DHT22;37998;53.416;6.730;2024-02-23T04:17:57;5.80;99.90
51982;DHT22;37998;53.416;6.730;2024-02-23T04:20:23;5.80;99.90
51982;DHT22;37998;53.416;6.730;2024-02-23T04:22:49;5.80;99.90
51982;DHT22;37998;53.416;6.730;2024-02-23T04:25:15;5.70;99.90
51982;DHT22;37998;53.416;6.730;2024-02-23T04:27:41;5.80;99.90
51982;DHT22;37998;53.416;6.730;2024-02-23T04:30:07;5.80;99.90
51982;DHT22;37998;53.416;6.730;2024-02-23T04:32:33;5.80;99.90
51982;DHT22;37998;53.416;6.730;2024-02-23T04:34:59;5.70;99.90
51982;DHT22;37998;53.416;6.730;2024-02-23T04:37:25;5.50;99.90
51982;DHT22;37998;53.416;6.730;2024-02-23T04:39:51;5.40;99.90
51982;DHT22;37998;53.416;6.730;2024-02-23T04:42:17;5.20;99.90
51982;DHT22;37998;53.416;6.730;2024-02-23T04:44:43;4.90;99.90
51982;DHT22;37998;53.416;6.730;2024-02-23T04:47:09;4.80;99.90
51982;DHT22;37998;53.416;6.730;2024-02-23T04:49:35;4.80;99.90
51982;DHT22;37998;53.416;6.730;2024-02-23T04:52:01;5.00;99.90
51982;DHT22;37998;53.416;6.730;2024-02-23T04:54:27;5.00;99.90
51982;DHT22;37998;53.416;6.730;2024-02-23T04:56:53;5.00;99.90
51982;DHT22;37998;53.416;6.730;2024-02-23T04:59:18;5.10;99.90
51982;DHT22;37998;53.416;6.730;2024-02-23T05:01:44;5.20;99.90
51982;DHT22;37998;53.416;6.730;2024-02-23T05:04:10;5.20;99.90
51982;DHT22;37998;53.416;6.730;2024-02-23T05:06:36;5.20;99.90
51982;DHT22;37998;53.416;6.730;2024-02-23T05:09:02;5.20;99.90
51982;DHT22;37998;53.416;6.730;2024-02-23T05:11:28;5.20;99.90
51982;DHT22;37998;53.416;6.730;2024-02-23T05:13:54;5.20;99.90
51982;DHT22;37998;53.416;6.730;2024-02-23T05:16:20;5.20;99.90
51982;DHT22;37998;53.416;6.730;2024-02-23T05:18:46;5.20;99.90
51982;DHT22;37998;53.416;6.730;2024-02-23T05:21:14;5.20;99.90
51982;DHT22;37998;53.416;6.730;2024-02-23T05:23:41;5.20;99.90
51982;DHT22;37998;53.416;6.730;2024-02-23T05:26:07;5.20;99.90
51982;DHT22;37998;53.416;6.730;2024-02-23T05:28:33;5.20;99.90
51982;DHT22;37998;53.416;6.730;2024-02-23T05:31:01;5.20;99.90
51982;DHT22;37998;53.416;6.730;2024-02-23T05:33:27;5.20;99.90
51982;DHT22;37998;53.416;6.730;2024-02-23T05:35:53;5.20;99.90
51982;DHT22;37998;53.416;6.730;2024-02-23T05:38:19;5.20;99.90
51982;DHT22;37998;53.416;6.730;2024-02-23T05:40:45;5.20;99.90
51982;DHT22;37998;53.416;6.730;2024-02-23T05:43:11;5.20;99.90
51982;DHT22;37998;53.416;6.730;2024-02-23T05:45:37;5.20;99.90
51982;DHT22;37998;53.416;6.730;2024-02-23T05:48:03;5.20;99.90
51982;DHT22;37998;53.416;6.730;2024-02-23T05:50:29;5.20;99.90
51982;DHT22;37998;53.416;6.730;2024-02-23T05:52:55;5.10;99.90
51982;DHT22;37998;53.416;6.730;2024-02-23T05:55:21;5.20;99.90
51982;DHT22;37998;53.416;6.730;2024-02-23T05:57:46;5.10;99.90
51982;DHT22;37998;53.416;6.730;2024-02-23T06:00:13;5.20;99.90
51982;DHT22;37998;53.416;6.730;2024-02-23T06:02:40;5.20;99.90
51982;DHT22;37998;53.416;6.730;2024-02-23T06:05:06;5.20;99.90
51982;DHT22;37998;53.416;6.730;2024-02-23T06:07:35;5.10;99.90
51982;DHT22;37998;53.416;6.730;2024-02-23T06:10:02;5.10;99.90
51982;DHT22;37998;53.416;6.730;2024-02-23T06:12:28;5.10;99.90
51982;DHT22;37998;53.416;6.730;2024-02-23T06:14:54;5.00;99.90
51982;DHT22;37998;53.416;6.730;2024-02-23T06:17:22;5.00;99.90
51982;DHT22;37998;53.416;6.730;2024-02-23T06:19:49;4.90;99.90
51982;DHT22;37998;53.416;6.730;2024-02-23T06:22:15;4.90;99.90
51982;DHT22;37998;53.416;6.730;2024-02-23T06:24:47;4.90;99.90
51982;DHT22;37998;53.416;6.730;2024-02-23T06:27:13;4.90;99.90
51982;DHT22;37998;53.416;6.730;2024-02-23T06:29:39;4.90;99.90
51982;DHT22;37998;53.416;6.730;2024-02-23T06:32:05;4.90;99.90
51982;DHT22;37998;53.416;6.730;2024-02-23T06:34:31;4.90;99.90
51982;DHT22;37998;53.416;6.730;2024-02-23T06:36:57;5.00;99.90
51982;DHT22;37998;53.416;6.730;2024-02-23T06:39:23;4.90;99.90
51982;DHT22;37998;53.416;6.730;2024-02-23T06:41:49;5.00;99.90
51982;DHT22;37998;53.416;6.730;2024-02-23T06:44:15;4.90;99.90
51982;DHT22;37998;53.416;6.730;2024-02-23T06:46:41;4.90;99.90
51982;DHT22;37998;53.416;6.730;2024-02-23T06:49:07;4.90;99.90
51982;DHT22;37998;53.416;6.730;2024-02-23T06:51:33;4.90;99.90
51982;DHT22;37998;53.416;6.730;2024-02-23T06:53:59;4.80;99.90
51982;DHT22;37998;53.416;6.730;2024-02-23T06:56:25;4.90;99.90
51982;DHT22;37998;53.416;6.730;2024-02-23T06:58:51;4.90;99.90
51982;DHT22;37998;53.416;6.730;2024-02-23T07:01:17;4.90;99.90
51982;DHT22;37998;53.416;6.730;2024-02-23T07:03:46;5.00;99.90
51982;DHT22;37998;53.416;6.730;2024-02-23T07:06:12;4.90;99.90
51982;DHT22;37998;53.416;6.730;2024-02-23T07:08:38;4.90;99.90
51982;DHT22;37998;53.416;6.730;2024-02-23T07:11:03;5.00;99.90
51982;DHT22;37998;53.416;6.730;2024-02-23T07:13:29;5.00;99.90
51982;DHT22;37998;53.416;6.730;2024-02-23T07:15:55;5.10;99.90
51982;DHT22;37998;53.416;6.730;2024-02-23T07:18:22;5.10;99.90
51982;DHT22;37998;53.416;6.730;2024-02-23T07:20:48;5.10;99.90
51982;DHT22;37998;53.416;6.730;2024-02-23T07:23:14;5.20;99.90
51982;DHT22;37998;53.416;6.730;2024-02-23T07:25:42;5.20;99.90
51982;DHT22;37998;53.416;6.730;2024-02-23T07:28:08;5.20;99.90
51982;DHT22;37998;53.416;6.730;2024-02-23T07:30:33;5.20;99.90
51982;DHT22;37998;53.416;6.730;2024-02-23T07:33:02;5.20;99.90
51982;DHT22;37998;53.416;6.730;2024-02-23T07:35:28;5.20;99.90
51982;DHT22;37998;53.416;6.730;2024-02-23T07:37:55;5.30;99.90
51982;DHT22;37998;53.416;6.730;2024-02-23T07:40:21;5.30;99.90
51982;DHT22;37998;53.416;6.730;2024-02-23T07:42:47;5.20;99.90
51982;DHT22;37998;53.416;6.730;2024-02-23T07:45:13;5.20;99.90
51982;DHT22;37998;53.416;6.730;2024-02-23T07:47:39;5.40;99.90
51982;DHT22;37998;53.416;6.730;2024-02-23T07:50:05;5.20;99.90
51982;DHT22;37998;53.416;6.730;2024-02-23T07:52:31;5.30;99.90
51982;DHT22;37998;53.416;6.730;2024-02-23T07:54:57;5.40;99.90
51982;DHT22;37998;53.416;6.730;2024-02-23T07:57:24;5.40;99.90
51982;DHT22;37998;53.416;6.730;2024-02-23T07:59:50;5.40;99.90
51982;DHT22;37998;53.416;6.730;2024-02-23T08:02:16;5.50;99.90
51982;DHT22;37998;53.416;6.730;2024-02-23T08:04:42;5.50;99.90
51982;DHT22;37998;53.416;6.730;2024-02-23T08:07:08;5.50;99.90
51982;DHT22;37998;53.416;6.730;2024-02-23T08:09:34;5.50;99.90
51982;DHT22;37998;53.416;6.730;2024-02-23T08:12:00;5.50;99.90
51982;DHT22;37998;53.416;6.730;2024-02-23T08:14:26;5.50;99.90
51982;DHT22;37998;53.416;6.730;2024-02-23T08:16:52;5.60;99.90
51982;DHT22;37998;53.416;6.730;2024-02-23T08:19:18;5.70;99.90
51982;DHT22;37998;53.416;6.730;2024-02-23T08:21:46;5.70;99.90
51982;DHT22;37998;53.416;6.730;2024-02-23T08:24:12;5.70;99.90
51982;DHT22;37998;53.416;6.730;2024-02-23T08:26:38;5.70;99.90
51982;DHT22;37998;53.416;6.730;2024-02-23T08:29:05;5.70;99.90
51982;DHT22;37998;53.416;6.730;2024-02-23T08:31:31;5.80;99.90
51982;DHT22;37998;53.416;6.730;2024-02-23T08:33:57;6.40;99.90
51982;DHT22;37998;53.416;6.730;2024-02-23T08:36:23;5.80;99.90
51982;DHT22;37998;53.416;6.730;2024-02-23T08:38:49;5.90;99.90
51982;DHT22;37998;53.416;6.730;2024-02-23T08:41:15;5.90;99.90
51982;DHT22;37998;53.416;6.730;2024-02-23T08:43:41;5.90;99.90
51982;DHT22;37998;53.416;6.730;2024-02-23T08:46:07;5.90;99.90
51982;DHT22;37998;53.416;6.730;2024-02-23T08:48:33;5.90;99.90
51982;DHT22;37998;53.416;6.730;2024-02-23T08:50:59;5.90;99.90
51982;DHT22;37998;53.416;6.730;2024-02-23T08:53:25;5.90;99.90
51982;DHT22;37998;53.416;6.730;2024-02-23T08:55:51;6.00;99.90
51982;DHT22;37998;53.416;6.730;2024-02-23T08:58:16;5.90;99.90
51982;DHT22;37998;53.416;6.730;2024-02-23T09:00:43;5.90;99.90
51982;DHT22;37998;53.416;6.730;2024-02-23T09:03:09;5.90;99.90
51982;DHT22;37998;53.416;6.730;2024-02-23T09:05:35;5.90;99.90
51982;DHT22;37998;53.416;6.730;2024-02-23T09:08:00;6.00;99.90
51982;DHT22;37998;53.416;6.730;2024-02-23T09:10:26;6.00;99.90
51982;DHT22;37998;53.416;6.730;2024-02-23T09:12:52;6.00;99.90
51982;DHT22;37998;53.416;6.730;2024-02-23T09:15:18;6.10;99.90
51982;DHT22;37998;53.416;6.730;2024-02-23T09:17:44;7.00;99.90
51982;DHT22;37998;53.416;6.730;2024-02-23T09:20:10;6.00;99.90
51982;DHT22;37998;53.416;6.730;2024-02-23T09:22:36;6.00;99.90
51982;DHT22;37998;53.416;6.730;2024-02-23T09:25:03;6.00;99.90
51982;DHT22;37998;53.416;6.730;2024-02-23T09:27:31;6.10;99.90
51982;DHT22;37998;53.416;6.730;2024-02-23T09:29:57;6.10;99.90
51982;DHT22;37998;53.416;6.730;2024-02-23T09:32:24;6.20;99.90
51982;DHT22;37998;53.416;6.730;2024-02-23T09:34:50;6.20;99.90
51982;DHT22;37998;53.416;6.730;2024-02-23T09:37:16;6.40;99.90
51982;DHT22;37998;53.416;6.730;2024-02-23T09:39:42;6.40;99.90
51982;DHT22;37998;53.416;6.730;2024-02-23T09:42:10;6.40;99.90
51982;DHT22;37998;53.416;6.730;2024-02-23T09:44:39;6.50;99.90
51982;DHT22;37998;53.416;6.730;2024-02-23T09:47:07;6.50;99.90
51982;DHT22;37998;53.416;6.730;2024-02-23T09:49:39;6.50;99.90
51982;DHT22;37998;53.416;6.730;2024-02-23T09:52:07;6.40;99.90
51982;DHT22;37998;53.416;6.730;2024-02-23T09:54:35;6.40;99.90
51982;DHT22;37998;53.416;6.730;2024-02-23T09:57:02;6.40;99.90
51982;DHT22;37998;53.416;6.730;2024-02-23T09:59:30;6.50;99.90
51982;DHT22;37998;53.416;6.730;2024-02-23T10:01:57;6.40;99.90
51982;DHT22;37998;53.416;6.730;2024-02-23T10:04:27;6.40;99.90
51982;DHT22;37998;53.416;6.730;2024-02-23T10:06:56;6.40;99.90
51982;DHT22;37998;53.416;6.730;2024-02-23T10:09:22;6.40;99.90
51982;DHT22;37998;53.416;6.730;2024-02-23T10:11:54;6.50;99.90
51982;DHT22;37998;53.416;6.730;2024-02-23T10:14:21;6.50;99.90
51982;DHT22;37998;53.416;6.730;2024-02-23T10:16:47;6.50;99.90
51982;DHT22;37998;53.416;6.730;2024-02-23T10:19:14;6.50;99.90
51982;DHT22;37998;53.416;6.730;2024-02-23T10:21:40;6.60;99.90
51982;DHT22;37998;53.416;6.730;2024-02-23T10:24:06;6.70;99.90
51982;DHT22;37998;53.416;6.730;2024-02-23T10:26:32;6.70;99.90
51982;DHT22;37998;53.416;6.730;2024-02-23T10:28:58;6.90;99.90
51982;DHT22;37998;53.416;6.730;2024-02-23T10:31:24;7.00;99.90
51982;DHT22;37998;53.416;6.730;2024-02-23T10:33:50;7.10;99.90
51982;DHT22;37998;53.416;6.730;2024-02-23T10:36:18;7.10;99.90
51982;DHT22;37998;53.416;6.730;2024-02-23T10:38:45;7.30;99.90
51982;DHT22;37998;53.416;6.730;2024-02-23T10:41:17;7.30;99.90
51982;DHT22;37998;53.416;6.730;2024-02-23T10:43:48;7.40;99.90
51982;DHT22;37998;53.416;6.730;2024-02-23T10:46:14;7.40;99.90
51982;DHT22;37998;53.416;6.730;2024-02-23T10:48:42;7.40;99.90
51982;DHT22;37998;53.416;6.730;2024-02-23T10:51:13;7.40;99.90
51982;DHT22;37998;53.416;6.730;2024-02-23T10:53:39;7.40;99.90
51982;DHT22;37998;53.416;6.730;2024-02-23T10:56:07;7.40;99.90
51982;DHT22;37998;53.416;6.730;2024-02-23T10:58:33;7.40;99.90
51982;DHT22;37998;53.416;6.730;2024-02-23T11:01:00;7.30;99.90
51982;DHT22;37998;53.416;6.730;2024-02-23T11:03:31;7.30;99.90
51982;DHT22;37998;53.416;6.730;2024-02-23T11:06:01;7.20;99.90
51982;DHT22;37998;53.416;6.730;2024-02-23T11:08:28;7.10;99.90
51982;DHT22;37998;53.416;6.730;2024-02-23T11:10:54;7.20;99.90
51982;DHT22;37998;53.416;6.730;2024-02-23T11:13:30;8.40;99.90
51982;DHT22;37998;53.416;6.730;2024-02-23T11:16:06;7.30;99.90
51982;DHT22;37998;53.416;6.730;2024-02-23T11:18:39;7.30;99.90
51982;DHT22;37998;53.416;6.730;2024-02-23T11:21:05;7.30;99.90
51982;DHT22;37998;53.416;6.730;2024-02-23T11:26:09;7.30;99.90
51982;DHT22;37998;53.416;6.730;2024-02-23T11:31:14;7.20;99.90
51982;DHT22;37998;53.416;6.730;2024-02-23T11:33:40;7.10;99.90
51982;DHT22;37998;53.416;6.730;2024-02-23T11:36:07;7.00;99.90
51982;DHT22;37998;53.416;6.730;2024-02-23T11:38:34;7.00;99.90
51982;DHT22;37998;53.416;6.730;2024-02-23T11:41:02;7.00;99.90
51982;DHT22;37998;53.416;6.730;2024-02-23T11:43:29;6.90;99.90
51982;DHT22;37998;53.416;6.730;2024-02-23T11:45:55;6.90;99.90
51982;DHT22;37998;53.416;6.730;2024-02-23T11:48:21;6.90;99.90
51982;DHT22;37998;53.416;6.730;2024-02-23T11:50:50;6.80;99.90
51982;DHT22;37998;53.416;6.730;2024-02-23T11:53:17;6.70;99.90
51982;DHT22;37998;53.416;6.730;2024-02-23T11:55:48;6.70;99.90
51982;DHT22;37998;53.416;6.730;2024-02-23T11:58:15;6.60;99.90
51982;DHT22;37998;53.416;6.730;2024-02-23T12:00:41;6.60;99.90
51982;DHT22;37998;53.416;6.730;2024-02-23T12:03:07;6.60;99.90
51982;DHT22;37998;53.416;6.730;2024-02-23T12:05:33;6.50;99.90
51982;DHT22;37998;53.416;6.730;2024-02-23T12:07:59;6.60;99.90
51982;DHT22;37998;53.416;6.730;2024-02-23T12:10:25;6.60;99.90
51982;DHT22;37998;53.416;6.730;2024-02-23T12:12:51;6.90;99.90
51982;DHT22;37998;53.416;6.730;2024-02-23T12:15:17;6.60;99.90
51982;DHT22;37998;53.416;6.730;2024-02-23T12:17:47;6.70;99.90
51982;DHT22;37998;53.416;6.730;2024-02-23T12:20:13;6.70;99.90
51982;DHT22;37998;53.416;6.730;2024-02-23T12:22:41;6.70;99.90
51982;DHT22;37998;53.416;6.730;2024-02-23T12:25:07;6.80;99.90
51982;DHT22;37998;53.416;6.730;2024-02-23T12:27:33;6.80;99.90
51982;DHT22;37998;53.416;6.730;2024-02-23T12:30:02;6.80;99.90
51982;DHT22;37998;53.416;6.730;2024-02-23T12:32:28;6.90;99.90
51982;DHT22;37998;53.416;6.730;2024-02-23T12:34:54;6.90;99.90
51982;DHT22;37998;53.416;6.730;2024-02-23T12:37:21;7.00;99.90
51982;DHT22;37998;53.416;6.730;2024-02-23T12:39:48;7.00;99.90
51982;DHT22;37998;53.416;6.730;2024-02-23T12:42:14;7.00;99.90
51982;DHT22;37998;53.416;6.730;2024-02-23T12:44:40;7.10;99.90
51982;DHT22;37998;53.416;6.730;2024-02-23T12:47:06;7.00;99.90
51982;DHT22;37998;53.416;6.730;2024-02-23T12:49:35;7.20;99.90
51982;DHT22;37998;53.416;6.730;2024-02-23T12:52:01;7.20;99.90
51982;DHT22;37998;53.416;6.730;2024-02-23T12:54:27;7.20;99.90
51982;DHT22;37998;53.416;6.730;2024-02-23T12:56:53;7.20;99.90
51982;DHT22;37998;53.416;6.730;2024-02-23T12:59:20;7.30;99.90
51982;DHT22;37998;53.416;6.730;2024-02-23T13:01:46;7.30;99.90
51982;DHT22;37998;53.416;6.730;2024-02-23T13:04:12;7.30;99.90
51982;DHT22;37998;53.416;6.730;2024-02-23T13:06:40;7.30;99.90
51982;DHT22;37998;53.416;6.730;2024-02-23T13:09:06;7.40;99.90
51982;DHT22;37998;53.416;6.730;2024-02-23T13:11:38;7.30;99.90
51982;DHT22;37998;53.416;6.730;2024-02-23T13:14:04;7.40;99.90
51982;DHT22;37998;53.416;6.730;2024-02-23T13:16:31;7.40;99.90
51982;DHT22;37998;53.416;6.730;2024-02-23T13:18:57;7.30;99.90
51982;DHT22;37998;53.416;6.730;2024-02-23T13:21:23;7.30;99.90
51982;DHT22;37998;53.416;6.730;2024-02-23T13:23:50;7.30;99.90
51982;DHT22;37998;53.416;6.730;2024-02-23T13:26:16;7.30;99.90
51982;DHT22;37998;53.416;6.730;2024-02-23T13:28:43;7.30;99.90
51982;DHT22;37998;53.416;6.730;2024-02-23T13:31:10;7.30;99.90
51982;DHT22;37998;53.416;6.730;2024-02-23T13:33:36;7.10;99.90
51982;DHT22;37998;53.416;6.730;2024-02-23T13:36:03;7.30;99.90
51982;DHT22;37998;53.416;6.730;2024-02-23T13:38:30;7.30;99.90
51982;DHT22;37998;53.416;6.730;2024-02-23T13:40:56;7.30;99.90
51982;DHT22;37998;53.416;6.730;2024-02-23T13:43:22;7.30;99.90
51982;DHT22;37998;53.416;6.730;2024-02-23T13:45:52;7.30;99.90
51982;DHT22;37998;53.416;6.730;2024-02-23T13:48:19;7.30;99.90
51982;DHT22;37998;53.416;6.730;2024-02-23T13:50:46;7.30;99.90
51982;DHT22;37998;53.416;6.730;2024-02-23T13:53:13;7.30;99.90
51982;DHT22;37998;53.416;6.730;2024-02-23T13:55:40;7.30;99.90
51982;DHT22;37998;53.416;6.730;2024-02-23T13:58:10;7.30;99.90
51982;DHT22;37998;53.416;6.730;2024-02-23T14:00:38;7.30;99.90
51982;DHT22;37998;53.416;6.730;2024-02-23T14:03:04;7.30;99.90
51982;DHT22;37998;53.416;6.730;2024-02-23T14:05:30;7.30;99.90
51982;DHT22;37998;53.416;6.730;2024-02-23T14:07:56;7.30;99.90
51982;DHT22;37998;53.416;6.730;2024-02-23T14:10:22;7.20;99.90
51982;DHT22;37998;53.416;6.730;2024-02-23T14:12:48;7.20;99.90
51982;DHT22;37998;53.416;6.730;2024-02-23T14:15:21;7.20;99.90
51982;DHT22;37998;53.416;6.730;2024-02-23T14:17:48;7.20;99.90
51982;DHT22;37998;53.416;6.730;2024-02-23T14:20:15;7.20;99.90
51982;DHT22;37998;53.416;6.730;2024-02-23T14:22:41;7.20;99.90
51982;DHT22;37998;53.416;6.730;2024-02-23T14:25:10;7.20;99.90
51982;DHT22;37998;53.416;6.730;2024-02-23T14:27:36;7.10;99.90
51982;DHT22;37998;53.416;6.730;2024-02-23T14:30:02;7.20;99.90
51982;DHT22;37998;53.416;6.730;2024-02-23T14:32:28;7.10;99.90
51982;DHT22;37998;53.416;6.730;2024-02-23T14:34:55;6.90;99.90
51982;DHT22;37998;53.416;6.730;2024-02-23T14:37:28;6.70;99.90
51982;DHT22;37998;53.416;6.730;2024-02-23T14:39:54;6.50;99.90
51982;DHT22;37998;53.416;6.730;2024-02-23T14:42:21;6.30;99.90
51982;DHT22;37998;53.416;6.730;2024-02-23T14:44:47;6.30;99.90
51982;DHT22;37998;53.416;6.730;2024-02-23T14:47:16;6.10;99.90
51982;DHT22;37998;53.416;6.730;2024-02-23T14:49:42;6.00;99.90
51982;DHT22;37998;53.416;6.730;2024-02-23T14:52:08;5.80;99.90
51982;DHT22;37998;53.416;6.730;2024-02-23T14:54:35;5.70;99.90
51982;DHT22;37998;53.416;6.730;2024-02-23T14:57:04;5.60;99.90
51982;DHT22;37998;53.416;6.730;2024-02-23T14:59:30;5.70;99.90
51982;DHT22;37998;53.416;6.730;2024-02-23T15:01:57;5.70;99.90
51982;DHT22;37998;53.416;6.730;2024-02-23T15:04:23;5.80;99.90
51982;DHT22;37998;53.416;6.730;2024-02-23T15:06:50;5.90;99.90
51982;DHT22;37998;53.416;6.730;2024-02-23T15:09:16;6.00;99.90
51982;DHT22;37998;53.416;6.730;2024-02-23T15:11:42;6.10;99.90
51982;DHT22;37998;53.416;6.730;2024-02-23T15:14:08;6.20;99.90
51982;DHT22;37998;53.416;6.730;2024-02-23T15:16:35;6.30;99.90
51982;DHT22;37998;53.416;6.730;2024-02-23T15:19:02;6.40;99.90
51982;DHT22;37998;53.416;6.730;2024-02-23T15:21:28;6.50;99.90
51982;DHT22;37998;53.416;6.730;2024-02-23T15:23:54;6.60;99.90
51982;DHT22;37998;53.416;6.730;2024-02-23T15:26:20;6.60;99.90
51982;DHT22;37998;53.416;6.730;2024-02-23T15:28:47;6.70;99.90
51982;DHT22;37998;53.416;6.730;2024-02-23T15:31:13;6.70;99.90
51982;DHT22;37998;53.416;6.730;2024-02-23T15:33:39;6.60;99.90
51982;DHT22;37998;53.416;6.730;2024-02-23T15:36:06;6.70;99.90
51982;DHT22;37998;53.416;6.730;2024-02-23T15:38:37;6.70;99.90
51982;DHT22;37998;53.416;6.730;2024-02-23T15:41:03;6.70;99.90
51982;DHT22;37998;53.416;6.730;2024-02-23T15:43:29;6.70;99.90
51982;DHT22;37998;53.416;6.730;2024-02-23T15:45:55;6.60;99.90